sensor_id;sensor_type;location;lat;lon;timestamp;temperature;humidity
6752;DHT22;3413;47.680;9.166;2023-11-19T02:57:04;12.60;81.20
6752;DHT22;3413;47.680;9.166;2023-11-19T03:02:08;12.60;81.20
6752;DHT22;3413;47.680;9.166;2023-11-19T03:07:14;12.70;81.30
6752;DHT22;3413;47.680;9.166;2023-11-19T16:38:39;16.10;87.30
6752;DHT22;3413;47.680;9.166;2023-11-19T16:49:21;16.10;87.50
6752;DHT22;3413;47.680;9.166;2023-11-19T16:54:23;16.10;87.00
6752;DHT22;3413;47.680;9.166;2023-11-19T16:59:25;16.10;87.00
6752;DHT22;3413;47.680;9.166;2023-11-19T17:04:28;16.00;86.80
6752;DHT22;3413;47.680;9.166;2023-11-19T17:09:31;16.10;86.80
6752;DHT22;3413;47.680;9.166;2023-11-19T17:14:34;16.00;86.70
6752;DHT22;3413;47.680;9.166;2023-11-19T17:19:42;16.00;87.10
6752;DHT22;3413;47.680;9.166;2023-11-19T17:24:45;16.00;87.70
6752;DHT22;3413;47.680;9.166;2023-11-19T17:29:47;16.10;87.10
6752;DHT22;3413;47.680;9.166;2023-11-19T17:34:49;16.10;87.10
6752;DHT22;3413;47.680;9.166;2023-11-19T17:39:54;16.10;87.00
6752;DHT22;3413;47.680;9.166;2023-11-19T17:44:57;16.00;87.00
6752;DHT22;3413;47.680;9.166;2023-11-19T17:50:01;16.00;87.10
6752;DHT22;3413;47.680;9.166;2023-11-19T17:55:25;16.00;87.20
6752;DHT22;3413;47.680;9.166;2023-11-19T18:00:27;15.90;87.10
6752;DHT22;3413;47.680;9.166;2023-11-19T18:05:30;15.90;87.20
6752;DHT22;3413;47.680;9.166;2023-11-19T18:10:32;15.90;87.20
6752;DHT22;3413;47.680;9.166;2023-11-19T18:15:35;15.90;87.10
6752;DHT22;3413;47.680;9.166;2023-11-19T18:20:38;15.90;87.70
6752;DHT22;3413;47.680;9.166;2023-11-19T18:25:41;15.80;86.90
6752;DHT22;3413;47.680;9.166;2023-11-19T18:30:43;15.70;86.80
6752;DHT22;3413;47.680;9.166;2023-11-19T18:35:45;15.70;87.20
6752;DHT22;3413;47.680;9.166;2023-11-19T18:40:50;15.60;87.10
6752;DHT22;3413;47.680;9.166;2023-11-19T18:46:02;15.60;87.10
6752;DHT22;3413;47.680;9.166;2023-11-19T18:51:05;15.70;87.10
6752;DHT22;3413;47.680;9.166;2023-11-19T18:56:08;15.70;87.10
6752;DHT22;3413;47.680;9.166;2023-11-19T19:01:10;15.80;87.30
6752;DHT22;3413;47.680;9.166;2023-11-19T19:06:17;15.70;87.10
6752;DHT22;3413;47.680;9.166;2023-11-19T19:11:19;15.70;87.10
6752;DHT22;3413;47.680;9.166;2023-11-19T19:16:21;15.60;87.10
6752;DHT22;3413;47.680;9.166;2023-11-19T19:21:24;15.60;87.30
6752;DHT22;3413;47.680;9.166;2023-11-19T19:26:27;15.60;87.20
6752;DHT22;3413;47.680;9.166;2023-11-19T19:31:31;15.60;87.30
6752;DHT22;3413;47.680;9.166;2023-11-19T19:36:33;15.60;87.30
6752;DHT22;3413;47.680;9.166;2023-11-19T19:41:35;15.70;87.30
6752;DHT22;3413;47.680;9.166;2023-11-19T19:46:40;15.80;87.50
6752;DHT22;3413;47.680;9.166;2023-11-19T19:51:42;15.80;87.40
6752;DHT22;3413;47.680;9.166;2023-11-19T19:56:45;15.80;87.50
6752;DHT22;3413;47.680;9.166;2023-11-19T20:01:47;15.80;87.50
6752;DHT22;3413;47.680;9.166;2023-11-19T20:06:53;15.90;87.70
6752;DHT22;3413;47.680;9.166;2023-11-19T20:11:57;15.90;87.60
6752;DHT22;3413;47.680;9.166;2023-11-19T20:17:00;16.00;87.60
6752;DHT22;3413;47.680;9.166;2023-11-19T20:22:06;16.00;87.60
6752;DHT22;3413;47.680;9.166;2023-11-19T20:27:09;15.90;87.40
6752;DHT22;3413;47.680;9.166;2023-11-19T20:32:17;16.00;87.50
6752;DHT22;3413;47.680;9.166;2023-11-19T20:37:20;15.90;87.50
6752;DHT22;3413;47.680;9.166;2023-11-19T20:42:22;15.90;87.50
6752;DHT22;3413;47.680;9.166;2023-11-19T20:47:25;15.90;88.30
6752;DHT22;3413;47.680;9.166;2023-11-19T20:52:27;15.80;87.50
6752;DHT22;3413;47.680;9.166;2023-11-19T20:57:29;15.80;87.50
6752;DHT22;3413;47.680;9.166;2023-11-19T21:02:33;15.80;87.50
6752;DHT22;3413;47.680;9.166;2023-11-19T21:07:36;15.80;87.50
6752;DHT22;3413;47.680;9.166;2023-11-19T21:12:39;15.70;87.40
6752;DHT22;3413;47.680;9.166;2023-11-19T21:17:48;15.70;87.50
6752;DHT22;3413;47.680;9.166;2023-11-19T21:22:50;15.70;87.40
6752;DHT22;3413;47.680;9.166;2023-11-19T21:27:53;15.60;87.10
6752;DHT22;3413;47.680;9.166;2023-11-19T21:32:55;15.60;87.30
6752;DHT22;3413;47.680;9.166;2023-11-19T21:37:59;15.60;87.30
6752;DHT22;3413;47.680;9.166;2023-11-19T21:43:02;15.50;87.20
6752;DHT22;3413;47.680;9.166;2023-11-19T21:48:05;15.50;87.00
6752;DHT22;3413;47.680;9.166;2023-11-19T21:53:09;15.50;87.10
6752;DHT22;3413;47.680;9.166;2023-11-19T21:58:11;15.50;86.80
6752;DHT22;3413;47.680;9.166;2023-11-19T22:03:13;15.40;86.70
6752;DHT22;3413;47.680;9.166;2023-11-19T22:08:16;15.40;86.80
6752;DHT22;3413;47.680;9.166;2023-11-19T22:13:20;15.40;86.70
6752;DHT22;3413;47.680;9.166;2023-11-19T22:18:25;15.40;86.50
6752;DHT22;3413;47.680;9.166;2023-11-19T22:23:28;15.40;86.70
6752;DHT22;3413;47.680;9.166;2023-11-19T22:28:34;15.40;86.50
6752;DHT22;3413;47.680;9.166;2023-11-19T22:33:41;15.40;86.50
6752;DHT22;3413;47.680;9.166;2023-11-19T22:38:44;15.40;86.30
6752;DHT22;3413;47.680;9.166;2023-11-19T22:43:47;15.40;86.30
6752;DHT22;3413;47.680;9.166;2023-11-19T22:48:49;15.40;86.10
6752;DHT22;3413;47.680;9.166;2023-11-19T22:53:55;15.40;86.10
6752;DHT22;3413;47.680;9.166;2023-11-19T22:58:58;15.30;85.70
6752;DHT22;3413;47.680;9.166;2023-11-19T23:04:01;15.30;85.70
6752;DHT22;3413;47.680;9.166;2023-11-19T23:09:04;15.20;85.50
6752;DHT22;3413;47.680;9.166;2023-11-19T23:14:07;15.20;85.70
6752;DHT22;3413;47.680;9.166;2023-11-19T23:19:12;15.20;85.60
6752;DHT22;3413;47.680;9.166;2023-11-19T23:24:15;15.10;85.40
6752;DHT22;3413;47.680;9.166;2023-11-19T23:29:19;15.00;85.50
6752;DHT22;3413;47.680;9.166;2023-11-19T23:34:22;15.00;85.50
6752;DHT22;3413;47.680;9.166;2023-11-19T23:39:44;15.10;85.50
6752;DHT22;3413;47.680;9.166;2023-11-19T23:44:48;15.10;85.30
6752;DHT22;3413;47.680;9.166;2023-11-19T23:49:53;15.00;85.30
6752;DHT22;3413;47.680;9.166;2023-11-19T23:54:55;15.10;85.30
6752;DHT22;3413;47.680;9.166;2023-11-19T23:59:58;15.20;85.10
